Time;durP1;ratioP1;P1;durP2;ratioP2;P2;SDS_P1;SDS_P2;PMS_P1;PMS_P2;Temp;Humidity;BMP_temperature;BMP_pressure;BME280_temperature;BME280_humidity;BME280_pressure;Samples;Min_cycle;Max_cycle;Signal;HPM_P1;HPM_P2
2022/12/16 00:01:25;;;;;;;55.17;18.77;;;-0.90;99.90;;;;;;4128149;28;20748;-68
2022/12/16 00:03:26;;;;;;;88.07;21.80;;;-0.90;99.90;;;;;;4128086;28;20182;-68
2022/12/16 00:05:28;;;;;;;221.93;35.73;;;-0.90;99.90;;;;;;4144146;28;20495;-68
2022/12/16 00:07:29;;;;;;;159.83;33.50;;;-1.20;99.90;;;;;;4144813;28;20205;-68
2022/12/16 00:09:29;;;;;;;325.37;40.53;;;-1.30;99.90;;;;;;4145109;28;20428;-68
2022/12/16 00:11:31;;;;;;;102.23;25.37;;;-1.10;99.90;;;;;;4145405;28;20182;-68
2022/12/16 00:13:34;;;;;;;178.20;29.47;;;-1.00;99.90;;;;;;4145241;28;20186;-68
2022/12/16 00:15:36;;;;;;;187.70;34.33;;;-1.00;99.90;;;;;;4143910;28;20428;-68
2022/12/16 00:17:38;;;;;;;224.83;32.53;;;-1.10;99.90;;;;;;4144555;28;20789;-68
2022/12/16 00:19:39;;;;;;;147.00;32.63;;;-1.00;99.90;;;;;;4130646;28;20652;-68
2022/12/16 00:21:39;;;;;;;145.13;28.43;;;-0.90;99.90;;;;;;4148123;28;20429;-68
2022/12/16 00:23:40;;;;;;;112.40;27.53;;;-0.80;99.90;;;;;;4130537;28;20174;-68
2022/12/16 00:25:43;;;;;;;126.47;23.97;;;-0.90;99.90;;;;;;4146911;28;20178;-68
2022/12/16 00:27:44;;;;;;;127.80;25.60;;;-1.10;99.90;;;;;;4147504;28;20205;-68
2022/12/16 00:29:44;;;;;;;276.80;44.77;;;-1.20;99.90;;;;;;4147975;28;20478;-68
2022/12/16 00:31:46;;;;;;;133.23;23.30;;;-1.30;99.90;;;;;;4148060;28;20182;-68
2022/12/16 00:33:47;;;;;;;78.20;20.77;;;-1.30;99.90;;;;;;4123314;28;20634;-68
2022/12/16 00:35:48;;;;;;;167.13;28.53;;;-1.30;99.90;;;;;;4131655;28;20433;-68
2022/12/16 00:37:48;;;;;;;156.30;31.57;;;-1.30;99.90;;;;;;4113658;28;20207;-68
2022/12/16 00:39:49;;;;;;;71.43;21.17;;;-1.30;99.90;;;;;;4131465;28;20194;-68
2022/12/16 00:41:50;;;;;;;68.00;22.57;;;-1.20;99.90;;;;;;4098251;29;20184;-68
2022/12/16 00:43:51;;;;;;;145.20;29.50;;;-1.10;99.90;;;;;;4131774;28;20185;-68
2022/12/16 00:45:51;;;;;;;207.80;26.50;;;-1.10;99.90;;;;;;4114533;28;20953;-68
2022/12/16 00:47:52;;;;;;;87.97;22.97;;;-1.30;99.90;;;;;;4122574;28;20724;-68
2022/12/16 00:49:53;;;;;;;124.87;25.63;;;-1.40;99.90;;;;;;4098128;28;20200;-68
2022/12/16 00:51:53;;;;;;;235.57;39.40;;;-1.40;99.90;;;;;;4098400;29;20250;-68
2022/12/16 00:53:54;;;;;;;159.47;35.77;;;-1.50;99.90;;;;;;4115298;28;20865;-68
2022/12/16 00:56:07;;;;;;;157.63;35.27;;;-1.40;99.90;;;;;;4115423;28;20218;-68
2022/12/16 00:58:08;;;;;;;123.77;28.27;;;-1.20;99.90;;;;;;4097701;29;20195;-68
2022/12/16 01:00:11;;;;;;;160.17;30.40;;;-1.30;99.90;;;;;;4115627;28;20502;-68
2022/12/16 01:02:12;;;;;;;167.13;32.67;;;-1.30;99.90;;;;;;4098354;29;20188;-68
2022/12/16 01:04:13;;;;;;;81.93;23.40;;;-1.40;99.90;;;;;;4098017;29;20430;-68
2022/12/16 01:06:16;;;;;;;115.30;23.83;;;-1.40;99.90;;;;;;4115051;28;20198;-68
2022/12/16 01:08:17;;;;;;;110.73;23.73;;;-1.30;99.90;;;;;;4097334;29;20196;-68
2022/12/16 01:10:18;;;;;;;103.87;23.23;;;-1.20;99.90;;;;;;4115235;28;20472;-68
2022/12/16 01:12:19;;;;;;;65.67;21.97;;;-1.40;99.90;;;;;;4082195;29;20475;-68
2022/12/16 01:14:20;;;;;;;70.60;21.73;;;-1.30;99.90;;;;;;4097729;29;20431;-68
2022/12/16 01:16:20;;;;;;;91.37;23.87;;;-1.10;99.90;;;;;;4114644;28;20645;-68
2022/12/16 01:18:21;;;;;;;65.60;19.00;;;-1.00;99.90;;;;;;4115318;28;20701;-68
2022/12/16 01:20:22;;;;;;;74.67;21.63;;;-1.10;99.90;;;;;;4097582;29;20631;-68
2022/12/16 01:22:22;;;;;;;110.80;23.97;;;-0.90;99.90;;;;;;4114903;28;20261;-68
2022/12/16 01:24:23;;;;;;;92.20;29.03;;;-1.00;99.90;;;;;;4097652;29;20226;-68
2022/12/16 01:26:24;;;;;;;82.63;25.27;;;-1.00;99.90;;;;;;4097062;29;20191;-68
2022/12/16 01:28:26;;;;;;;77.80;23.87;;;-0.90;99.90;;;;;;4114749;28;20253;-68
2022/12/16 01:30:26;;;;;;;66.30;21.53;;;-0.80;99.90;;;;;;4114074;28;20237;-68
2022/12/16 01:32:27;;;;;;;119.20;29.20;;;-0.80;99.90;;;;;;4114754;28;20454;-68
2022/12/16 01:34:28;;;;;;;63.70;20.27;;;-0.80;99.90;;;;;;4097399;29;20283;-68
2022/12/16 01:36:28;;;;;;;48.60;17.67;;;-0.70;99.90;;;;;;4113931;28;20567;-68
2022/12/16 01:38:29;;;;;;;53.60;19.80;;;-0.80;99.90;;;;;;4114654;28;20191;-68
2022/12/16 01:40:30;;;;;;;55.93;19.37;;;-1.00;99.90;;;;;;4114719;28;20183;-68
2022/12/16 01:42:32;;;;;;;59.30;20.60;;;-1.00;99.90;;;;;;4097152;29;20450;-68
2022/12/16 01:44:33;;;;;;;51.60;19.30;;;-0.90;99.90;;;;;;4097258;29;20194;-68
2022/12/16 01:46:37;;;;;;;50.57;18.10;;;-1.00;99.90;;;;;;4096582;29;20470;-68
2022/12/16 01:49:11;;;;;;;49.77;18.47;;;-1.10;99.90;;;;;;4097054;29;20459;-68
2022/12/16 01:51:44;;;;;;;40.33;16.40;;;-1.10;99.90;;;;;;4097215;29;20641;-68
2022/12/16 01:53:48;;;;;;;48.97;16.70;;;-1.10;99.90;;;;;;4113878;28;20455;-68
2022/12/16 01:55:50;;;;;;;45.40;17.70;;;-1.20;99.90;;;;;;4114612;28;21025;-67
2022/12/16 01:58:08;;;;;;;47.20;17.07;;;-1.20;99.90;;;;;;4096546;29;20451;-67
2022/12/16 02:00:09;;;;;;;39.37;14.60;;;-1.10;99.90;;;;;;4097178;29;20545;-67
2022/12/16 02:02:11;;;;;;;41.13;16.83;;;-1.30;99.90;;;;;;4114277;28;20426;-67
2022/12/16 02:04:12;;;;;;;52.43;17.80;;;-1.40;99.90;;;;;;4096994;29;20431;-67
2022/12/16 02:06:13;;;;;;;57.30;19.50;;;-1.30;99.90;;;;;;4114140;28;20432;-67
2022/12/16 02:08:17;;;;;;;57.87;19.03;;;-1.40;99.90;;;;;;4096401;29;20254;-67
2022/12/16 02:10:26;;;;;;;46.77;17.80;;;-1.50;99.90;;;;;;4096799;29;20294;-67
2022/12/16 02:12:55;;;;;;;45.93;17.53;;;-1.40;99.90;;;;;;4081038;29;20422;-68
2022/12/16 02:15:50;;;;;;;51.73;19.00;;;-1.30;99.90;;;;;;4097027;29;20792;-67
2022/12/16 02:18:09;;;;;;;51.57;19.43;;;-1.10;99.90;;;;;;4096644;28;20561;-67
2022/12/16 02:20:21;;;;;;;59.03;20.53;;;-1.20;99.90;;;;;;4096959;29;20477;-67
2022/12/16 02:23:12;;;;;;;62.33;20.70;;;-1.00;99.90;;;;;;4114335;28;20509;-67
2022/12/16 02:25:43;;;;;;;59.97;19.50;;;-1.00;99.90;;;;;;4096977;29;20502;-67
2022/12/16 02:27:49;;;;;;;51.93;18.00;;;-1.20;99.90;;;;;;4113464;28;21034;-67
2022/12/16 02:30:20;;;;;;;64.67;20.57;;;-1.30;99.90;;;;;;4114018;28;20498;-67
2022/12/16 02:32:39;;;;;;;53.13;18.77;;;-1.30;99.90;;;;;;4113907;28;20430;-67
2022/12/16 02:35:33;;;;;;;46.83;18.33;;;-1.40;99.90;;;;;;4096707;29;20408;-67
2022/12/16 02:38:22;;;;;;;41.67;16.70;;;-1.20;99.90;;;;;;4095791;28;20462;-67
2022/12/16 02:40:39;;;;;;;47.00;17.60;;;-1.20;99.90;;;;;;4128443;28;20473;-67
2022/12/16 02:42:51;;;;;;;47.47;17.70;;;-1.30;99.90;;;;;;4123601;28;20488;-67
2022/12/16 02:45:10;;;;;;;48.00;18.40;;;-1.20;99.90;;;;;;4113813;28;21030;-68
2022/12/16 02:47:11;;;;;;;47.47;17.90;;;-1.20;99.90;;;;;;4095747;29;20477;-67
2022/12/16 02:49:11;;;;;;;40.83;16.97;;;-1.20;99.90;;;;;;4113641;28;20896;-67
2022/12/16 02:51:12;;;;;;;44.07;17.43;;;-1.10;99.90;;;;;;4113663;28;20193;-67
2022/12/16 02:53:13;;;;;;;47.97;18.07;;;-1.10;99.90;;;;;;4113644;28;20178;-68
2022/12/16 02:55:15;;;;;;;74.83;18.73;;;-1.20;99.90;;;;;;4096656;29;20263;-67
2022/12/16 02:57:25;;;;;;;43.90;17.80;;;-1.20;99.90;;;;;;4095759;29;20625;-67
2022/12/16 02:59:51;;;;;;;42.67;15.93;;;-1.10;99.90;;;;;;4096452;29;20455;-67
2022/12/16 03:02:34;;;;;;;50.27;17.27;;;-1.10;99.90;;;;;;4113750;28;20989;-67
2022/12/16 03:04:51;;;;;;;44.03;14.97;;;-1.20;99.90;;;;;;4113257;28;20437;-67
2022/12/16 03:06:54;;;;;;;41.57;14.97;;;-1.10;99.90;;;;;;4095566;29;20535;-67
2022/12/16 03:09:00;;;;;;;33.50;13.97;;;-1.20;99.90;;;;;;4096006;29;20446;-67
2022/12/16 03:11:04;;;;;;;40.93;18.17;;;-1.20;99.90;;;;;;4101327;28;20442;-67
2022/12/16 03:13:06;;;;;;;41.00;16.17;;;-1.20;99.90;;;;;;4112016;28;20444;-67
2022/12/16 03:15:09;;;;;;;47.37;16.93;;;-1.20;99.90;;;;;;4128071;28;20428;-68
2022/12/16 03:17:10;;;;;;;41.37;17.13;;;-1.20;99.90;;;;;;4129211;28;20440;-67
2022/12/16 03:19:12;;;;;;;44.00;16.50;;;-1.10;99.90;;;;;;4112022;28;20535;-68
2022/12/16 03:21:14;;;;;;;38.57;15.93;;;-0.90;99.90;;;;;;4096035;29;20483;-67
2022/12/16 03:23:23;;;;;;;40.10;16.47;;;-0.90;99.90;;;;;;4112084;28;20426;-67
2022/12/16 03:25:27;;;;;;;35.13;14.93;;;-0.90;99.90;;;;;;4111934;28;20794;-67
2022/12/16 03:27:50;;;;;;;33.60;14.33;;;-0.90;99.90;;;;;;4111285;28;20450;-68
2022/12/16 03:30:10;;;;;;;36.37;15.40;;;-1.00;99.90;;;;;;4129492;28;20476;-67
2022/12/16 03:32:20;;;;;;;32.00;14.07;;;-0.90;99.90;;;;;;4112034;28;20841;-67
2022/12/16 03:34:44;;;;;;;30.03;13.37;;;-0.90;99.90;;;;;;4112009;28;20425;-67
2022/12/16 03:36:52;;;;;;;29.47;13.83;;;-0.90;99.90;;;;;;4111510;28;20442;-67
2022/12/16 03:38:55;;;;;;;30.17;14.33;;;-1.00;99.90;;;;;;4110540;28;20465;-67
2022/12/16 03:40:56;;;;;;;28.70;12.57;;;-0.90;99.90;;;;;;4111612;28;20476;-67
2022/12/16 03:43:00;;;;;;;31.60;13.03;;;-0.90;99.90;;;;;;4112011;28;20481;-68
2022/12/16 03:45:02;;;;;;;32.77;14.57;;;-0.80;99.90;;;;;;4112273;28;20430;-67
2022/12/16 03:47:02;;;;;;;23.83;11.87;;;-0.70;99.90;;;;;;4111416;28;20457;-68
2022/12/16 03:49:03;;;;;;;28.27;13.63;;;-0.70;99.90;;;;;;4111673;28;20434;-67
2022/12/16 03:51:04;;;;;;;25.97;11.57;;;-0.80;99.90;;;;;;4111907;28;20261;-67
2022/12/16 03:53:05;;;;;;;27.67;11.93;;;-0.70;99.90;;;;;;4130090;28;20252;-67
2022/12/16 03:55:07;;;;;;;32.43;13.30;;;-0.70;99.90;;;;;;4132279;28;20193;-67
2022/12/16 03:57:07;;;;;;;27.73;13.03;;;-0.70;99.90;;;;;;4131863;28;20493;-67
2022/12/16 03:59:08;;;;;;;27.63;12.67;;;-0.60;99.90;;;;;;4132198;28;20539;-67
2022/12/16 04:01:09;;;;;;;27.03;12.70;;;-0.60;99.90;;;;;;4115041;28;20185;-68
2022/12/16 04:03:10;;;;;;;27.17;13.63;;;-0.70;99.90;;;;;;4132359;28;20557;-67
2022/12/16 04:05:10;;;;;;;26.83;13.37;;;-0.80;99.90;;;;;;4114875;28;20505;-67
2022/12/16 04:07:20;;;;;;;29.17;13.13;;;-0.70;99.90;;;;;;4114469;28;20271;-67
2022/12/16 04:09:21;;;;;;;28.17;12.70;;;-0.60;99.90;;;;;;4132362;28;20188;-67
2022/12/16 04:25:36;;;;;;;26.63;12.83;;;-1.20;99.90;;;;;;4117130;28;20456;-67
2022/12/16 04:27:36;;;;;;;25.93;12.23;;;-1.30;99.90;;;;;;4131672;28;20444;-67
2022/12/16 04:30:17;;;;;;;31.47;15.17;;;-1.30;99.90;;;;;;4114553;28;20429;-67
2022/12/16 04:31:59;;;;;;;27.20;12.50;;;-1.30;99.90;;;;;;4131671;28;20209;-67
